createdAt,value
2022-12-05T00:00:36.544Z,0.13
2022-12-05T00:03:23.520Z,0.17
2022-12-05T00:06:04.613Z,0.19
2022-12-05T00:08:51.486Z,0.22
2022-12-05T00:11:27.565Z,0.24
2022-12-05T00:14:15.478Z,0.27
2022-12-05T00:16:49.648Z,0.28
2022-12-05T00:19:36.524Z,0.30
2022-12-05T00:22:09.562Z,0.31
2022-12-05T00:24:58.636Z,0.35
2022-12-05T00:27:31.616Z,0.36
2022-12-05T00:30:18.528Z,0.38
2022-12-05T00:32:51.575Z,0.38
2022-12-05T00:35:40.547Z,0.39
2022-12-05T00:38:13.587Z,0.39
2022-12-05T00:41:00.538Z,0.38
2022-12-05T00:43:40.523Z,0.38
2022-12-05T00:46:32.565Z,0.41
2022-12-05T00:49:13.502Z,0.40
2022-12-05T00:52:07.512Z,0.41
2022-12-05T00:54:57.208Z,0.42
2022-12-05T00:57:30.595Z,0.42
2022-12-05T01:00:17.509Z,0.44
2022-12-05T01:02:57.550Z,0.46
2022-12-05T01:05:44.537Z,0.47
2022-12-05T01:08:25.516Z,0.47
2022-12-05T01:11:21.527Z,0.49
2022-12-05T01:14:08.532Z,0.52
2022-12-05T01:16:43.629Z,0.54
2022-12-05T01:19:33.508Z,0.58
2022-12-05T01:22:07.591Z,0.65
2022-12-05T01:24:55.513Z,0.69
2022-12-05T01:27:35.574Z,0.71
2022-12-05T01:30:22.565Z,0.74
2022-12-05T01:32:55.635Z,0.78
2022-12-05T01:35:44.569Z,0.79
2022-12-05T01:38:19.619Z,0.80
2022-12-05T01:41:08.574Z,0.81
2022-12-05T01:43:59.665Z,0.85
2022-12-05T01:46:52.545Z,0.85
2022-12-05T01:49:38.579Z,0.85
2022-12-05T01:52:37.528Z,0.86
2022-12-05T01:55:32.528Z,0.88
2022-12-05T01:58:26.535Z,0.90
2022-12-05T02:01:13.627Z,0.90
2022-12-05T02:03:57.524Z,0.91
2022-12-05T02:06:51.559Z,0.92
2022-12-05T02:09:45.547Z,0.93
2022-12-05T02:12:32.543Z,0.96
2022-12-05T02:15:41.541Z,0.96
2022-12-05T02:18:53.536Z,0.97
2022-12-05T02:21:53.554Z,0.97
2022-12-05T02:25:09.527Z,0.96
2022-12-05T02:28:27.556Z,0.96
2022-12-05T02:31:11.916Z,0.97
2022-12-05T02:34:13.606Z,0.97
2022-12-05T02:36:52.609Z,0.98
2022-12-05T02:39:51.567Z,1.00
2022-12-05T02:42:46.543Z,1.02
2022-12-05T02:45:36.570Z,1.03
2022-12-05T02:48:19.552Z,1.06
2022-12-05T02:51:09.550Z,1.10
2022-12-05T02:53:44.630Z,1.13
2022-12-05T02:56:33.539Z,1.16
2022-12-05T02:59:19.915Z,1.18
2022-12-05T03:02:09.560Z,1.21
2022-12-05T03:04:49.530Z,1.21
2022-12-05T03:07:44.624Z,1.23
2022-12-05T03:10:34.552Z,1.25
2022-12-05T03:13:22.580Z,1.27
2022-12-05T03:16:22.580Z,1.29
2022-12-05T03:19:23.569Z,1.31
2022-12-05T03:22:11.559Z,1.31
2022-12-05T03:24:58.568Z,1.32
2022-12-05T03:28:00.559Z,1.31
2022-12-05T03:30:55.589Z,1.34
2022-12-05T03:33:48.561Z,1.37
2022-12-05T03:36:25.630Z,1.38
2022-12-05T03:39:16.571Z,1.40
2022-12-05T03:42:01.631Z,1.41
2022-12-05T03:45:13.576Z,1.41
2022-12-05T03:48:04.642Z,1.43
2022-12-05T03:51:01.572Z,1.44
2022-12-05T03:53:53.563Z,1.46
2022-12-05T03:56:33.496Z,1.47
2022-12-05T03:59:32.567Z,1.49
2022-12-05T04:02:13.634Z,1.51
2022-12-05T04:05:10.584Z,1.52
2022-12-05T04:07:46.704Z,1.54
2022-12-05T04:10:38.607Z,1.54
2022-12-05T04:13:19.681Z,1.55
2022-12-05T04:16:30.566Z,1.56
2022-12-05T04:19:19.597Z,1.61
2022-12-05T04:22:13.589Z,1.62
2022-12-05T04:25:29.592Z,1.63
2022-12-05T04:28:41.619Z,1.63
2022-12-05T04:31:45.580Z,1.63
2022-12-05T04:34:34.575Z,1.62
2022-12-05T04:37:13.679Z,1.62
2022-12-05T04:40:08.573Z,1.63
2022-12-05T04:42:44.733Z,1.64
2022-12-05T04:45:32.598Z,1.64
2022-12-05T04:48:18.579Z,1.67
2022-12-05T04:51:12.593Z,1.68
2022-12-05T04:54:05.593Z,1.70
2022-12-05T04:56:42.678Z,1.70
2022-12-05T04:59:29.594Z,1.71
2022-12-05T05:02:09.063Z,1.73
2022-12-05T05:04:58.589Z,1.76
2022-12-05T05:07:31.710Z,1.79
2022-12-05T05:10:21.597Z,1.81
2022-12-05T05:13:01.598Z,1.82
2022-12-05T05:15:55.651Z,1.85
2022-12-05T05:18:42.600Z,1.87
2022-12-05T05:21:25.718Z,1.91
2022-12-05T05:24:13.607Z,1.95
2022-12-05T05:26:55.530Z,2.02
2022-12-05T05:29:43.607Z,2.08
2022-12-05T05:32:16.679Z,2.11
2022-12-05T05:35:03.608Z,2.16
2022-12-05T05:37:36.670Z,2.19
2022-12-05T05:40:23.589Z,2.23
2022-12-05T05:43:03.628Z,2.27
2022-12-05T05:45:57.597Z,2.32
2022-12-05T05:48:51.601Z,2.32
2022-12-05T05:51:39.621Z,2.34
2022-12-05T05:54:12.661Z,2.37
2022-12-05T05:56:59.652Z,2.37
2022-12-05T05:59:32.672Z,2.39
2022-12-05T06:02:19.654Z,2.41
2022-12-05T06:04:52.683Z,2.41
2022-12-05T06:07:39.687Z,2.45
2022-12-05T06:10:13.693Z,2.47
2022-12-05T06:13:00.654Z,2.50
2022-12-05T06:15:33.700Z,2.52
2022-12-05T06:18:20.603Z,2.55
2022-12-05T06:21:00.773Z,2.56
2022-12-05T06:23:47.626Z,2.57
2022-12-05T06:26:23.956Z,2.58
2022-12-05T06:29:10.635Z,2.59
2022-12-05T06:31:43.773Z,2.61
2022-12-05T06:34:30.625Z,2.62
2022-12-05T06:37:10.633Z,2.63
2022-12-05T06:40:04.691Z,2.62
2022-12-05T06:42:51.632Z,2.65
2022-12-05T06:45:24.697Z,2.66
2022-12-05T06:48:11.652Z,2.67
2022-12-05T06:50:51.632Z,2.69
2022-12-05T06:53:38.650Z,2.70
2022-12-05T06:56:14.775Z,2.71
2022-12-05T06:59:02.636Z,2.74
2022-12-05T07:01:45.802Z,2.77
2022-12-05T07:04:39.643Z,2.80
2022-12-05T07:07:26.644Z,2.82
2022-12-05T07:10:06.632Z,2.85
2022-12-05T07:13:00.654Z,2.87
2022-12-05T07:15:54.642Z,2.89
2022-12-05T07:18:42.630Z,2.91
2022-12-05T07:21:28.661Z,2.94
2022-12-05T07:24:22.632Z,2.96
2022-12-05T07:27:09.652Z,2.98
2022-12-05T07:29:42.724Z,3.00
2022-12-05T07:32:29.658Z,3.01
2022-12-05T07:35:02.782Z,3.02
2022-12-05T07:37:49.642Z,3.03
2022-12-05T07:40:22.758Z,3.05
2022-12-05T07:43:09.650Z,3.08
2022-12-05T07:45:49.699Z,3.09
2022-12-05T07:48:43.653Z,3.10
2022-12-05T07:51:37.669Z,3.14
2022-12-05T07:54:24.676Z,3.17
2022-12-05T07:57:04.637Z,3.18
2022-12-05T07:59:58.863Z,3.18
2022-12-05T08:02:45.708Z,3.22
2022-12-05T08:05:25.664Z,3.25
2022-12-05T08:08:19.706Z,3.29
2022-12-05T08:11:24.674Z,3.34
2022-12-05T08:14:19.658Z,3.39
2022-12-05T08:17:13.770Z,3.42
2022-12-05T08:20:07.670Z,3.46
2022-12-05T08:23:01.662Z,3.51
2022-12-05T08:25:48.687Z,3.57
2022-12-05T08:28:21.732Z,3.60
2022-12-05T08:31:14.781Z,3.65
2022-12-05T08:33:48.779Z,3.70
2022-12-05T08:36:36.667Z,3.75
2022-12-05T08:39:14.235Z,3.80
2022-12-05T08:42:00.674Z,3.83
2022-12-05T08:44:33.762Z,3.90
2022-12-05T08:47:20.683Z,3.93
2022-12-05T08:49:53.745Z,3.98
2022-12-05T08:52:40.682Z,4.01
2022-12-05T08:55:21.668Z,4.05
2022-12-05T08:58:08.684Z,4.08
2022-12-05T09:00:48.681Z,4.10
2022-12-05T09:03:35.692Z,4.17
2022-12-05T09:06:29.938Z,4.21
2022-12-05T09:09:17.672Z,4.29
2022-12-05T09:11:58.688Z,4.34
2022-12-05T09:14:45.695Z,4.42
2022-12-05T09:17:18.796Z,4.48
2022-12-05T09:20:05.689Z,4.53
2022-12-05T09:22:39.773Z,4.56
2022-12-05T09:25:26.756Z,4.57
2022-12-05T09:27:59.764Z,4.60
2022-12-05T09:30:46.730Z,4.62
2022-12-05T09:33:19.754Z,4.64
2022-12-05T09:36:12.710Z,4.68
2022-12-05T09:38:46.779Z,4.69
2022-12-05T09:42:13.716Z,4.74
2022-12-05T09:44:52.760Z,4.78
2022-12-05T09:47:42.687Z,4.79
2022-12-05T09:50:34.724Z,4.80
2022-12-05T09:53:47.683Z,4.84
2022-12-05T09:56:36.713Z,4.83
2022-12-05T09:59:09.769Z,4.84
2022-12-05T10:02:02.778Z,4.86
2022-12-05T10:04:39.149Z,4.88
2022-12-05T10:07:32.744Z,4.93
2022-12-05T10:10:34.816Z,4.96
2022-12-05T10:13:33.699Z,4.99
2022-12-05T10:16:11.843Z,5.01
2022-12-05T10:19:15.711Z,5.05
2022-12-05T10:22:02.865Z,5.10
2022-12-05T10:24:53.720Z,5.13
2022-12-05T10:27:40.030Z,5.15
2022-12-05T10:30:29.730Z,5.20
2022-12-05T10:33:09.645Z,5.23
2022-12-05T10:36:00.727Z,5.25
2022-12-05T10:38:36.915Z,5.28
2022-12-05T10:41:24.716Z,5.27
2022-12-05T10:44:04.711Z,5.26
2022-12-05T10:46:58.785Z,5.27
2022-12-05T10:49:46.761Z,5.27
2022-12-05T10:52:20.790Z,5.28
2022-12-05T10:55:12.757Z,5.28
2022-12-05T10:57:52.721Z,5.30
2022-12-05T11:00:39.739Z,5.32
2022-12-05T11:03:45.803Z,5.34
2022-12-05T11:06:38.716Z,5.37
2022-12-05T11:09:19.885Z,5.41
2022-12-05T11:12:15.727Z,5.47
2022-12-05T11:15:01.250Z,5.48
2022-12-05T11:17:47.732Z,5.53
2022-12-05T11:20:33.788Z,5.52
2022-12-05T11:23:39.732Z,5.52
2022-12-05T11:26:35.765Z,5.51
2022-12-05T11:29:10.819Z,5.52
2022-12-05T11:31:58.720Z,5.50
2022-12-05T11:34:41.832Z,5.47
2022-12-05T11:37:35.744Z,5.40
2022-12-05T11:40:29.423Z,5.39
2022-12-05T11:43:33.754Z,5.41
2022-12-05T11:47:06.848Z,5.42
2022-12-05T11:50:18.769Z,5.42
2022-12-05T11:53:27.751Z,5.42
2022-12-05T11:56:26.754Z,5.47
2022-12-05T11:59:04.843Z,5.51
2022-12-05T12:02:12.829Z,5.56
2022-12-05T12:05:30.760Z,5.59
2022-12-05T12:08:49.757Z,5.59
2022-12-05T12:11:46.822Z,5.59
2022-12-05T12:14:59.977Z,5.58
2022-12-05T12:17:35.828Z,5.57
2022-12-05T12:20:53.774Z,5.56
2022-12-05T12:23:42.748Z,5.55
2022-12-05T12:26:44.774Z,5.53
2022-12-05T12:29:36.825Z,5.51
2022-12-05T12:32:52.760Z,5.50
2022-12-05T12:36:03.761Z,5.48
2022-12-05T12:38:56.859Z,5.47
2022-12-05T12:42:19.761Z,5.43
2022-12-05T12:44:59.417Z,5.40
2022-12-05T12:47:49.772Z,5.39
2022-12-05T12:50:25.850Z,5.38
2022-12-05T12:53:33.761Z,5.38
2022-12-05T12:56:45.758Z,5.36
2022-12-05T13:00:00.881Z,5.37
2022-12-05T13:02:57.777Z,5.36
2022-12-05T13:05:57.775Z,5.35
2022-12-05T13:09:06.788Z,5.35
2022-12-05T13:11:55.785Z,5.35
2022-12-05T13:14:31.833Z,5.37
2022-12-05T13:17:24.787Z,5.41
2022-12-05T13:19:59.854Z,5.43
2022-12-05T13:22:46.769Z,5.49
2022-12-05T13:25:29.793Z,5.52
2022-12-05T13:28:41.781Z,5.51
2022-12-05T13:31:19.367Z,5.51
2022-12-05T13:34:05.798Z,5.51
2022-12-05T13:37:11.759Z,5.49
2022-12-05T13:40:26.837Z,5.47
2022-12-05T13:43:13.805Z,5.47
2022-12-05T13:45:58.962Z,5.47
2022-12-05T13:48:48.785Z,5.46
2022-12-05T13:51:39.894Z,5.45
2022-12-05T13:54:30.780Z,5.44
2022-12-05T13:57:12.831Z,5.43
2022-12-05T14:00:21.813Z,5.40
2022-12-05T14:03:21.802Z,5.39
2022-12-05T14:06:15.789Z,5.37
2022-12-05T14:09:02.779Z,5.35
2022-12-05T14:11:35.898Z,5.34
2022-12-05T14:15:00.802Z,5.32
2022-12-05T14:17:43.803Z,5.30
2022-12-05T14:20:49.788Z,5.30
2022-12-05T14:23:42.610Z,5.30
2022-12-05T14:26:57.818Z,5.30
2022-12-05T14:30:03.809Z,5.28
2022-12-05T14:32:50.799Z,5.27
2022-12-05T14:35:23.899Z,5.27
2022-12-05T14:38:27.813Z,5.25
2022-12-05T14:41:06.603Z,5.20
2022-12-05T14:44:03.812Z,5.18
2022-12-05T14:46:47.813Z,5.17
2022-12-05T14:49:46.956Z,5.14
2022-12-05T14:52:34.823Z,5.13
2022-12-05T14:55:27.109Z,5.13
2022-12-05T14:58:10.819Z,5.13
2022-12-05T15:01:12.823Z,5.11
2022-12-05T15:04:05.846Z,5.10
2022-12-05T15:06:49.812Z,5.09
2022-12-05T15:09:41.821Z,5.07
2022-12-05T15:12:49.911Z,5.03
2022-12-05T15:15:58.870Z,5.01
2022-12-05T15:18:48.811Z,4.98
2022-12-05T15:21:55.883Z,4.95
2022-12-05T15:24:52.819Z,4.94
2022-12-05T15:27:46.834Z,4.93
2022-12-05T15:30:35.853Z,4.88
2022-12-05T15:33:15.807Z,4.85
2022-12-05T15:36:09.827Z,4.79
2022-12-05T15:38:56.872Z,4.77
2022-12-05T15:41:29.921Z,4.75
2022-12-05T15:44:25.293Z,4.74
2022-12-05T15:47:02.920Z,4.74
2022-12-05T15:49:49.841Z,4.74
2022-12-05T15:52:41.841Z,4.72
2022-12-05T15:55:44.856Z,4.71
2022-12-05T15:58:34.857Z,4.68
2022-12-05T16:01:23.039Z,4.67
2022-12-05T16:04:30.868Z,4.66
2022-12-05T16:07:13.911Z,4.66
2022-12-05T16:10:11.849Z,4.66
2022-12-05T16:12:59.855Z,4.66
2022-12-05T16:15:33.956Z,4.66
2022-12-05T16:18:46.851Z,4.67
2022-12-05T16:21:58.865Z,4.66
2022-12-05T16:24:58.829Z,4.65
2022-12-05T16:27:52.859Z,4.63
2022-12-05T16:30:47.119Z,4.62
2022-12-05T16:33:40.282Z,4.59
2022-12-05T16:36:18.931Z,4.59
2022-12-05T16:39:14.981Z,4.57
2022-12-05T16:41:52.995Z,4.57
2022-12-05T16:44:51.872Z,4.57
2022-12-05T16:47:39.867Z,4.59
2022-12-05T16:50:35.841Z,4.58
2022-12-05T16:53:38.882Z,4.57
2022-12-05T16:56:13.941Z,4.57
2022-12-05T16:59:00.883Z,4.58
2022-12-05T17:01:38.711Z,4.60
2022-12-05T17:04:25.925Z,4.61
2022-12-05T17:07:05.896Z,4.60
2022-12-05T17:09:59.857Z,4.64
2022-12-05T17:12:53.877Z,4.65
2022-12-05T17:15:47.926Z,4.65
2022-12-05T17:18:34.886Z,4.65
2022-12-05T17:21:09.022Z,4.63
2022-12-05T17:23:55.881Z,4.60
2022-12-05T17:26:36.883Z,4.59
2022-12-05T17:29:23.864Z,4.58
2022-12-05T17:32:03.985Z,4.57
2022-12-05T17:35:01.146Z,4.56
2022-12-05T17:37:50.881Z,4.58
2022-12-05T17:40:30.895Z,4.57
2022-12-05T17:43:26.846Z,4.57
2022-12-05T17:46:14.906Z,4.57
2022-12-05T17:48:47.981Z,4.57
2022-12-05T17:51:48.088Z,4.58
2022-12-05T17:54:27.952Z,4.58
2022-12-05T17:57:14.903Z,4.60
2022-12-05T17:59:47.983Z,4.60
2022-12-05T18:02:34.898Z,4.62
2022-12-05T18:05:07.987Z,4.63
2022-12-05T18:07:54.982Z,4.64
2022-12-05T18:10:29.967Z,4.65
2022-12-05T18:13:16.923Z,4.65
2022-12-05T18:15:50.961Z,4.66
2022-12-05T18:18:37.919Z,4.67
2022-12-05T18:21:25.905Z,4.66
2022-12-05T18:24:19.914Z,4.65
2022-12-05T18:27:06.906Z,4.65
2022-12-05T18:29:40.038Z,4.63
2022-12-05T18:32:26.906Z,4.62
2022-12-05T18:35:01.978Z,4.62
2022-12-05T18:37:48.907Z,4.62
2022-12-05T18:40:28.983Z,4.61
2022-12-05T18:43:22.912Z,4.57
2022-12-05T18:46:10.944Z,4.54
2022-12-05T18:48:47.418Z,4.51
2022-12-05T18:51:34.903Z,4.47
2022-12-05T18:54:07.998Z,4.44
2022-12-05T18:56:56.914Z,4.43
2022-12-05T18:59:30.685Z,4.42
2022-12-05T19:02:17.969Z,4.45
2022-12-05T19:04:50.991Z,4.45
2022-12-05T19:07:37.973Z,4.43
2022-12-05T19:10:11.991Z,4.43
2022-12-05T19:12:58.908Z,4.43
2022-12-05T19:15:38.888Z,4.42
2022-12-05T19:18:32.916Z,4.43
2022-12-05T19:21:26.909Z,4.45
2022-12-05T19:24:21.947Z,4.46
2022-12-05T19:27:08.931Z,4.45
2022-12-05T19:29:48.929Z,4.45
2022-12-05T19:32:40.048Z,4.42
2022-12-05T19:35:20.935Z,4.41
2022-12-05T19:38:14.934Z,4.42
2022-12-05T19:41:03.923Z,4.44
2022-12-05T19:43:38.064Z,4.43
2022-12-05T19:46:28.154Z,4.42
2022-12-05T19:49:03.079Z,4.41
2022-12-05T19:51:50.948Z,4.41
2022-12-05T19:54:24.294Z,4.42
2022-12-05T19:57:10.926Z,4.43
2022-12-05T19:59:50.913Z,4.44
2022-12-05T20:02:45.985Z,4.44
2022-12-05T20:05:39.936Z,4.44
2022-12-05T20:08:33.967Z,4.42
2022-12-05T20:11:25.940Z,4.41
2022-12-05T20:14:07.962Z,4.43
2022-12-05T20:17:02.000Z,4.43
2022-12-05T20:19:48.916Z,4.42
2022-12-05T20:22:28.955Z,4.43
2022-12-05T20:25:22.939Z,4.45
2022-12-05T20:28:11.945Z,4.48
2022-12-05T20:30:45.667Z,4.48
2022-12-05T20:33:31.976Z,4.50
2022-12-05T20:36:20.969Z,4.51
2022-12-05T20:39:26.945Z,4.53
2022-12-05T20:42:21.004Z,4.54
2022-12-05T20:45:07.948Z,4.53
2022-12-05T20:47:41.024Z,4.53
2022-12-05T20:50:28.008Z,4.54
2022-12-05T20:53:07.980Z,4.55
2022-12-05T20:55:54.988Z,4.55
2022-12-05T20:58:28.024Z,4.55
2022-12-05T21:01:17.003Z,4.55
2022-12-05T21:03:58.962Z,4.52
2022-12-05T21:06:48.975Z,4.51
2022-12-05T21:09:36.968Z,4.47
2022-12-05T21:12:30.974Z,4.46
2022-12-05T21:15:17.969Z,4.45
2022-12-05T21:17:51.031Z,4.44
2022-12-05T21:20:42.115Z,4.43
2022-12-05T21:23:22.959Z,4.43
2022-12-05T21:26:12.978Z,4.44
2022-12-05T21:28:53.964Z,4.44
2022-12-05T21:31:51.977Z,4.46
2022-12-05T21:34:38.969Z,4.45
2022-12-05T21:37:12.032Z,4.46
2022-12-05T21:39:59.184Z,4.47
2022-12-05T21:42:32.101Z,4.47
2022-12-05T21:45:18.989Z,4.47
2022-12-05T21:47:52.124Z,4.47
2022-12-05T21:50:38.960Z,4.48
2022-12-05T21:53:12.093Z,4.49
2022-12-05T21:56:09.977Z,4.48
2022-12-05T21:58:51.990Z,4.48
2022-12-05T22:01:39.024Z,4.49
2022-12-05T22:04:12.032Z,4.51
2022-12-05T22:06:59.009Z,4.51
2022-12-05T22:09:38.963Z,4.48
2022-12-05T22:12:25.983Z,4.48
2022-12-05T22:15:05.987Z,4.48
2022-12-05T22:18:00.004Z,4.49
2022-12-05T22:20:53.985Z,4.48
2022-12-05T22:23:47.982Z,4.46
2022-12-05T22:26:42.009Z,4.46
2022-12-05T22:29:29.065Z,4.46
2022-12-05T22:32:08.992Z,4.46
2022-12-05T22:35:04.289Z,4.44
2022-12-05T22:37:51.000Z,4.43
2022-12-05T22:40:24.060Z,4.45
2022-12-05T22:43:10.991Z,4.43
2022-12-05T22:45:51.011Z,4.42
2022-12-05T22:48:38.024Z,4.42
2022-12-05T22:51:20.042Z,4.42
2022-12-05T22:54:13.993Z,4.41
2022-12-05T22:57:01.034Z,4.41
2022-12-05T22:59:41.011Z,4.43
2022-12-05T23:03:30.103Z,4.42
2022-12-05T23:06:43.055Z,4.41
2022-12-05T23:09:30.055Z,4.42
2022-12-05T23:12:06.095Z,4.41
2022-12-05T23:14:53.038Z,4.43
2022-12-05T23:17:26.124Z,4.45
2022-12-05T23:20:14.034Z,4.44
2022-12-05T23:22:54.064Z,4.43
2022-12-05T23:25:41.048Z,4.45
2022-12-05T23:28:21.033Z,4.45
2022-12-05T23:31:19.101Z,4.47
2022-12-05T23:34:06.051Z,4.47
2022-12-05T23:36:41.178Z,4.49
2022-12-05T23:39:28.065Z,4.48
2022-12-05T23:42:01.104Z,4.48
2022-12-05T23:44:48.073Z,4.48
2022-12-05T23:47:21.114Z,4.49
2022-12-05T23:50:08.061Z,4.50
2022-12-05T23:52:43.094Z,4.50
2022-12-05T23:55:30.095Z,4.52
2022-12-05T23:58:03.125Z,4.49
